Time;durP1;ratioP1;P1;durP2;ratioP2;P2;SDS_P1;SDS_P2;PMS_P1;PMS_P2;Temp;Humidity;BMP_temperature;BMP_pressure;BME280_temperature;BME280_humidity;BME280_pressure;Samples;Min_cycle;Max_cycle;Signal;HPM_P1;HPM_P2
2021/11/03 00:00:55;;;;;;;70.03;35.47;;;6.80;99.90;;;;;;4318293;33;20189;-68
2021/11/03 00:03:23;;;;;;;71.83;34.53;;;6.80;99.90;;;;;;4327807;32;20181;-68
2021/11/03 00:05:50;;;;;;;74.23;35.97;;;6.80;99.90;;;;;;4382115;32;20175;-67
2021/11/03 00:08:21;;;;;;;78.30;37.47;;;6.80;99.90;;;;;;4382164;32;20182;-67
2021/11/03 00:10:50;;;;;;;73.53;36.03;;;6.80;99.90;;;;;;4382602;32;20225;-67
2021/11/03 00:13:20;;;;;;;73.33;35.90;;;6.80;99.90;;;;;;4383217;32;20179;-67
2021/11/03 00:15:47;;;;;;;70.27;35.00;;;6.90;99.90;;;;;;4383097;32;20566;-67
2021/11/03 00:18:14;;;;;;;69.27;34.60;;;6.80;99.90;;;;;;4380750;32;20206;-68
2021/11/03 00:20:41;;;;;;;71.93;35.13;;;6.90;99.90;;;;;;4375930;32;20237;-68
2021/11/03 00:23:08;;;;;;;69.43;34.83;;;6.80;99.90;;;;;;4377206;32;20317;-67
2021/11/03 00:25:45;;;;;;;68.60;34.60;;;6.80;99.90;;;;;;4379700;32;20175;-68
2021/11/03 00:28:15;;;;;;;68.67;34.43;;;6.80;99.90;;;;;;4370438;32;20245;-68
2021/11/03 00:30:44;;;;;;;68.33;34.60;;;6.90;99.90;;;;;;4394709;32;20432;-68
2021/11/03 00:33:12;;;;;;;71.63;33.73;;;6.90;99.90;;;;;;4381462;32;20229;-67
2021/11/03 00:35:39;;;;;;;67.13;33.47;;;6.90;99.90;;;;;;4394867;32;20239;-68
2021/11/03 00:38:06;;;;;;;67.87;33.67;;;6.90;99.90;;;;;;4380833;32;20248;-67
2021/11/03 00:40:34;;;;;;;65.23;32.87;;;6.90;99.90;;;;;;4380775;32;20175;-68
2021/11/03 00:43:02;;;;;;;64.80;33.17;;;6.90;99.90;;;;;;4378293;32;20179;-67
2021/11/03 00:45:30;;;;;;;66.37;33.27;;;6.90;99.90;;;;;;4381839;32;20226;-67
2021/11/03 00:47:57;;;;;;;67.17;33.80;;;6.90;99.90;;;;;;4381483;32;20244;-67
2021/11/03 00:50:24;;;;;;;66.27;33.80;;;7.00;99.90;;;;;;4394374;32;20499;-67
2021/11/03 00:52:52;;;;;;;65.67;33.57;;;7.00;99.90;;;;;;4362393;32;20195;-68
2021/11/03 00:55:19;;;;;;;65.97;34.10;;;7.00;99.90;;;;;;4371316;32;20230;-68
2021/11/03 00:57:46;;;;;;;61.77;33.17;;;7.00;99.90;;;;;;4380895;32;20202;-68
2021/11/03 01:00:15;;;;;;;62.40;33.03;;;7.00;99.90;;;;;;4381957;32;20206;-67
2021/11/03 01:02:42;;;;;;;64.53;33.13;;;7.00;99.90;;;;;;4381561;32;20180;-67
2021/11/03 01:05:11;;;;;;;64.57;32.97;;;7.00;99.90;;;;;;4381811;32;20179;-67
2021/11/03 01:07:38;;;;;;;66.73;34.23;;;7.00;99.90;;;;;;4380152;32;20340;-67
2021/11/03 01:10:07;;;;;;;65.03;32.33;;;7.00;99.90;;;;;;4395354;32;20494;-67
2021/11/03 01:12:34;;;;;;;63.00;33.33;;;7.00;99.90;;;;;;4381938;32;20286;-67
2021/11/03 01:15:03;;;;;;;64.20;33.27;;;7.10;99.90;;;;;;4380502;32;20183;-67
2021/11/03 01:17:30;;;;;;;60.97;32.73;;;7.10;99.90;;;;;;4379184;32;20472;-68
2021/11/03 01:19:57;;;;;;;61.47;32.17;;;7.10;99.90;;;;;;4372308;32;20180;-67
2021/11/03 01:22:23;;;;;;;67.00;33.37;;;7.00;99.90;;;;;;4380410;32;20163;-67
2021/11/03 01:24:50;;;;;;;59.00;30.53;;;7.10;99.90;;;;;;4380942;32;20397;-67
2021/11/03 01:27:17;;;;;;;64.23;31.80;;;7.10;99.90;;;;;;4367575;32;20176;-67
2021/11/03 01:29:44;;;;;;;67.23;32.63;;;7.10;99.90;;;;;;4366178;32;20556;-67
2021/11/03 01:32:11;;;;;;;59.60;31.37;;;7.20;99.90;;;;;;4366784;32;20202;-67
2021/11/03 01:34:38;;;;;;;62.70;31.40;;;7.20;99.90;;;;;;4366496;32;20209;-67
2021/11/03 01:37:05;;;;;;;62.37;31.73;;;7.20;99.90;;;;;;4366117;32;20468;-67
2021/11/03 01:39:32;;;;;;;62.60;31.17;;;7.20;99.90;;;;;;4367057;32;20180;-67
2021/11/03 01:41:59;;;;;;;61.20;32.30;;;7.30;99.90;;;;;;4380357;32;20210;-67
2021/11/03 01:44:26;;;;;;;60.27;30.33;;;7.30;99.90;;;;;;4366427;32;20576;-67
2021/11/03 01:47:17;;;;;;;60.83;31.53;;;7.20;99.90;;;;;;4366226;32;20597;-67
2021/11/03 01:49:44;;;;;;;59.03;30.83;;;7.30;99.90;;;;;;4320338;33;20199;-67
2021/11/03 01:52:14;;;;;;;63.30;32.23;;;7.30;99.90;;;;;;4320114;33;20316;-67
2021/11/03 01:54:48;;;;;;;61.87;30.97;;;7.30;99.90;;;;;;4320215;33;20198;-67
2021/11/03 01:57:23;;;;;;;59.97;30.10;;;7.40;99.90;;;;;;4319771;33;20192;-67
2021/11/03 01:59:54;;;;;;;61.77;31.03;;;7.40;99.90;;;;;;4320183;33;20458;-67
2021/11/03 02:02:21;;;;;;;58.60;29.67;;;7.30;99.90;;;;;;4321958;33;20208;-67
2021/11/03 02:04:49;;;;;;;60.00;29.50;;;7.30;99.90;;;;;;4321895;33;20308;-67
2021/11/03 02:07:22;;;;;;;56.97;29.37;;;7.30;99.90;;;;;;4320119;33;20600;-67
2021/11/03 02:09:51;;;;;;;59.33;30.57;;;7.30;99.90;;;;;;4321299;33;20172;-67
2021/11/03 02:12:23;;;;;;;58.00;30.10;;;7.30;99.90;;;;;;4321320;33;20172;-67
2021/11/03 02:14:51;;;;;;;54.43;28.73;;;7.40;99.90;;;;;;4320558;33;20195;-67
2021/11/03 02:17:21;;;;;;;60.60;29.20;;;7.40;99.90;;;;;;4319636;33;20224;-67
2021/11/03 02:19:50;;;;;;;58.20;29.43;;;7.40;99.90;;;;;;4321142;33;20196;-68
2021/11/03 02:22:50;;;;;;;54.43;28.20;;;7.40;99.90;;;;;;4319946;33;20243;-67
2021/11/03 02:25:28;;;;;;;55.80;27.60;;;7.40;99.90;;;;;;4330371;33;20184;-67
2021/11/03 02:27:57;;;;;;;57.77;28.03;;;7.40;99.90;;;;;;4361900;32;20493;-67
2021/11/03 02:30:26;;;;;;;54.93;27.07;;;7.40;99.90;;;;;;4366631;32;20599;-67
2021/11/03 02:33:00;;;;;;;53.23;27.00;;;7.40;99.90;;;;;;4364993;32;20180;-68
2021/11/03 02:35:27;;;;;;;51.83;27.00;;;7.40;99.90;;;;;;4364772;32;20197;-68
2021/11/03 02:37:56;;;;;;;52.80;26.93;;;7.50;99.90;;;;;;4366022;32;20176;-67
2021/11/03 02:40:31;;;;;;;51.20;26.20;;;7.50;99.90;;;;;;4366203;32;20236;-68
2021/11/03 02:43:10;;;;;;;50.30;25.00;;;7.50;99.90;;;;;;4364807;32;20522;-68
2021/11/03 02:45:40;;;;;;;50.90;24.93;;;7.50;99.90;;;;;;4384374;32;20179;-67
2021/11/03 02:48:07;;;;;;;45.60;24.73;;;7.40;99.90;;;;;;4380811;32;20175;-67
2021/11/03 02:50:34;;;;;;;50.07;25.03;;;7.50;99.90;;;;;;4380224;32;20238;-67
2021/11/03 02:53:01;;;;;;;48.63;24.30;;;7.40;99.90;;;;;;4381087;32;20183;-68
2021/11/03 02:55:28;;;;;;;52.17;24.50;;;7.40;99.90;;;;;;4380491;32;20178;-67
2021/11/03 02:57:55;;;;;;;48.80;23.67;;;7.40;99.90;;;;;;4379481;32;20183;-67
2021/11/03 03:00:25;;;;;;;52.37;23.47;;;7.40;99.90;;;;;;4394910;32;20207;-67
2021/11/03 03:02:52;;;;;;;51.50;24.27;;;7.40;99.90;;;;;;4380075;32;20521;-67
2021/11/03 03:05:20;;;;;;;52.27;24.03;;;7.40;99.90;;;;;;4393211;32;20624;-67
2021/11/03 03:07:46;;;;;;;47.83;23.57;;;7.50;99.90;;;;;;4394655;32;20174;-68
2021/11/03 03:10:13;;;;;;;49.00;22.87;;;7.50;99.90;;;;;;4394175;32;20396;-68
2021/11/03 03:12:40;;;;;;;49.57;22.93;;;7.50;99.90;;;;;;4380108;32;20202;-67
2021/11/03 03:15:08;;;;;;;49.53;23.03;;;7.60;99.90;;;;;;4380162;32;20230;-67
2021/11/03 03:17:35;;;;;;;48.77;22.47;;;7.60;99.90;;;;;;4394949;32;20178;-67
2021/11/03 03:20:03;;;;;;;47.60;22.10;;;7.60;99.90;;;;;;4381132;32;20172;-67
2021/11/03 03:22:30;;;;;;;48.37;22.83;;;7.60;99.90;;;;;;4380190;32;20195;-68
2021/11/03 03:24:57;;;;;;;47.03;22.97;;;7.60;99.90;;;;;;4379420;32;20425;-68
2021/11/03 03:27:24;;;;;;;50.43;23.10;;;7.70;99.90;;;;;;4394368;32;20437;-68
2021/11/03 03:29:52;;;;;;;47.83;22.60;;;7.60;99.90;;;;;;4379764;32;20171;-68
2021/11/03 03:32:20;;;;;;;47.07;23.00;;;7.70;99.90;;;;;;4393357;32;20531;-68
2021/11/03 03:34:47;;;;;;;47.40;22.33;;;7.70;99.90;;;;;;4380083;32;20198;-68
2021/11/03 03:37:15;;;;;;;48.40;23.17;;;7.70;99.90;;;;;;4382822;32;20448;-68
2021/11/03 03:39:42;;;;;;;44.10;22.03;;;7.70;99.90;;;;;;4382489;32;20172;-68
2021/11/03 03:42:16;;;;;;;43.60;21.90;;;7.70;99.90;;;;;;4384214;32;20199;-68
2021/11/03 03:44:44;;;;;;;48.57;22.33;;;7.70;99.90;;;;;;4384412;32;20197;-68
2021/11/03 03:47:12;;;;;;;44.40;21.57;;;7.70;99.90;;;;;;4382308;32;20191;-68
2021/11/03 03:49:39;;;;;;;43.43;22.23;;;7.70;99.90;;;;;;4396810;32;20484;-68
2021/11/03 03:52:06;;;;;;;48.80;22.63;;;7.70;99.90;;;;;;4397671;32;20177;-67
2021/11/03 03:54:33;;;;;;;43.07;21.60;;;7.70;99.90;;;;;;4384117;32;20167;-68
2021/11/03 03:57:01;;;;;;;47.53;24.00;;;7.70;99.90;;;;;;4381745;32;20187;-68
2021/11/03 03:59:27;;;;;;;42.63;21.40;;;7.70;99.90;;;;;;4383806;32;20187;-68
2021/11/03 04:01:54;;;;;;;47.97;23.27;;;7.70;99.90;;;;;;4397276;32;20416;-67
2021/11/03 04:04:21;;;;;;;44.53;21.73;;;7.70;99.90;;;;;;4383503;32;20400;-69
2021/11/03 04:06:48;;;;;;;45.03;22.83;;;7.70;99.90;;;;;;4382307;32;20476;-68
2021/11/03 04:09:15;;;;;;;47.83;23.20;;;7.70;99.90;;;;;;4383343;32;20468;-67
2021/11/03 04:11:42;;;;;;;46.00;23.03;;;7.70;99.90;;;;;;4382707;32;20411;-67
2021/11/03 04:14:09;;;;;;;44.87;22.70;;;7.70;99.90;;;;;;4382631;32;20225;-68
2021/11/03 04:16:36;;;;;;;44.43;22.40;;;7.70;99.90;;;;;;4383272;32;20230;-67
2021/11/03 04:19:04;;;;;;;45.10;22.37;;;7.70;99.90;;;;;;4381942;32;20183;-68
2021/11/03 04:21:31;;;;;;;44.00;22.17;;;7.80;99.90;;;;;;4381578;32;20196;-68
2021/11/03 04:24:18;;;;;;;45.93;22.93;;;7.80;99.90;;;;;;4382206;32;20175;-68
2021/11/03 04:26:47;;;;;;;45.50;22.87;;;7.80;99.90;;;;;;4383516;32;20494;-68
2021/11/03 04:29:16;;;;;;;44.80;21.77;;;7.80;99.90;;;;;;4383312;32;20247;-68
2021/11/03 04:31:44;;;;;;;43.70;22.57;;;7.80;99.90;;;;;;4381756;32;20231;-68
2021/11/03 04:34:11;;;;;;;44.67;22.33;;;7.80;99.90;;;;;;4377229;32;20201;-68
2021/11/03 04:36:38;;;;;;;46.07;22.27;;;7.70;99.90;;;;;;4373530;32;20178;-67
2021/11/03 04:39:08;;;;;;;45.67;22.87;;;7.80;99.90;;;;;;4381579;32;20422;-68
2021/11/03 04:41:35;;;;;;;43.50;21.67;;;7.70;99.90;;;;;;4368238;32;20226;-67
2021/11/03 04:44:02;;;;;;;47.47;23.30;;;7.80;99.90;;;;;;4367380;32;20206;-67
2021/11/03 04:46:29;;;;;;;42.67;22.27;;;7.70;99.90;;;;;;4365875;32;20211;-68
2021/11/03 04:48:57;;;;;;;45.03;23.10;;;7.70;99.90;;;;;;4366138;32;20608;-67
2021/11/03 04:51:24;;;;;;;44.87;22.77;;;7.70;99.90;;;;;;4381947;32;20190;-67
2021/11/03 04:53:51;;;;;;;42.27;21.73;;;7.70;99.90;;;;;;4366369;32;20180;-68
2021/11/03 04:56:21;;;;;;;44.97;22.40;;;7.70;99.90;;;;;;4368317;32;20472;-67
2021/11/03 04:58:51;;;;;;;48.20;22.63;;;7.70;99.90;;;;;;4365926;32;20530;-67
2021/11/03 05:01:21;;;;;;;44.53;21.80;;;7.70;99.90;;;;;;4381623;32;20351;-68
2021/11/03 05:03:50;;;;;;;45.50;23.10;;;7.80;99.90;;;;;;4367684;32;20183;-68
2021/11/03 05:06:19;;;;;;;43.97;22.17;;;7.80;99.90;;;;;;4381930;32;20270;-67
2021/11/03 05:08:46;;;;;;;43.87;22.70;;;7.70;99.90;;;;;;4367470;32;20184;-67
2021/11/03 05:11:13;;;;;;;44.83;22.87;;;7.70;99.90;;;;;;4366944;32;20187;-67
2021/11/03 05:13:40;;;;;;;45.33;23.10;;;7.80;99.90;;;;;;4381680;32;20144;-68
2021/11/03 05:16:07;;;;;;;46.53;22.93;;;7.80;99.90;;;;;;4366243;32;20195;-68
2021/11/03 05:18:34;;;;;;;44.83;22.37;;;7.80;99.90;;;;;;4367039;32;20179;-68
2021/11/03 05:21:01;;;;;;;42.97;22.27;;;7.80;99.90;;;;;;4367093;32;20210;-68
2021/11/03 05:23:28;;;;;;;40.67;20.93;;;7.80;99.90;;;;;;4381281;32;20182;-68
2021/11/03 05:25:56;;;;;;;42.87;22.10;;;7.80;99.90;;;;;;4380733;32;20195;-68
2021/11/03 05:28:23;;;;;;;40.53;21.80;;;7.70;99.90;;;;;;4366398;32;20176;-68
2021/11/03 05:30:50;;;;;;;41.57;21.70;;;7.70;99.90;;;;;;4367345;32;20195;-68
2021/11/03 05:33:17;;;;;;;42.07;21.87;;;7.70;99.90;;;;;;4366847;32;20229;-68
2021/11/03 05:35:45;;;;;;;39.23;21.27;;;7.70;99.90;;;;;;4366209;32;20526;-68
2021/11/03 05:38:12;;;;;;;42.63;22.33;;;7.70;99.90;;;;;;4366030;32;20214;-68
2021/11/03 05:40:39;;;;;;;42.83;21.70;;;7.80;99.90;;;;;;4366308;32;20247;-68
2021/11/03 05:43:06;;;;;;;45.37;22.47;;;7.80;99.90;;;;;;4365929;32;20247;-70
2021/11/03 05:45:33;;;;;;;44.20;22.27;;;7.70;99.90;;;;;;4365598;32;20233;-68
2021/11/03 05:48:00;;;;;;;44.93;23.07;;;7.70;99.90;;;;;;4367164;32;20489;-68
2021/11/03 05:50:31;;;;;;;42.57;22.10;;;7.80;99.90;;;;;;4365238;32;20195;-68
2021/11/03 05:52:59;;;;;;;42.43;22.43;;;7.80;99.90;;;;;;4371858;32;20217;-68
2021/11/03 05:55:27;;;;;;;45.40;21.93;;;7.80;99.90;;;;;;4374715;32;20602;-68
2021/11/03 05:57:55;;;;;;;47.70;24.27;;;7.80;99.90;;;;;;4378100;32;20199;-68
2021/11/03 06:00:30;;;;;;;44.70;22.00;;;7.80;99.90;;;;;;4377954;32;20207;-68
2021/11/03 06:02:57;;;;;;;43.67;22.60;;;7.80;99.90;;;;;;4379370;32;20451;-67
2021/11/03 06:05:25;;;;;;;45.80;23.30;;;7.80;99.90;;;;;;4379606;32;20243;-68
2021/11/03 06:07:58;;;;;;;44.57;22.70;;;7.80;99.90;;;;;;4379453;32;20163;-68
2021/11/03 06:10:30;;;;;;;46.30;23.17;;;7.80;99.90;;;;;;4378915;32;20155;-68
2021/11/03 06:12:58;;;;;;;44.70;22.57;;;7.90;99.90;;;;;;4380885;32;20193;-68
2021/11/03 06:15:27;;;;;;;43.77;22.13;;;7.90;99.90;;;;;;4380478;32;20174;-68
2021/11/03 06:17:55;;;;;;;43.77;22.27;;;7.90;99.90;;;;;;4379050;32;20219;-67
2021/11/03 06:20:23;;;;;;;43.13;21.23;;;7.90;99.90;;;;;;4377677;32;20199;-68
2021/11/03 06:22:50;;;;;;;47.03;24.50;;;7.90;99.90;;;;;;4379263;32;20202;-68
2021/11/03 06:25:18;;;;;;;41.40;21.97;;;7.90;99.90;;;;;;4364572;32;20196;-68
2021/11/03 06:27:50;;;;;;;43.93;22.33;;;8.00;99.90;;;;;;4377339;32;20257;-67
2021/11/03 06:30:21;;;;;;;41.60;20.43;;;8.00;99.90;;;;;;4379004;32;20191;-68
2021/11/03 06:32:48;;;;;;;39.90;19.30;;;7.90;99.90;;;;;;4378492;32;20179;-67
2021/11/03 06:35:15;;;;;;;36.30;19.50;;;8.00;99.90;;;;;;4377362;32;20172;-67
2021/11/03 06:37:42;;;;;;;37.70;18.93;;;7.90;99.90;;;;;;4377524;32;20190;-67
2021/11/03 06:40:15;;;;;;;38.37;19.63;;;7.90;99.90;;;;;;4378820;32;20230;-67
2021/11/03 06:42:42;;;;;;;39.17;19.93;;;8.00;99.90;;;;;;4377768;32;20253;-68
2021/11/03 06:45:11;;;;;;;37.70;19.57;;;8.00;99.90;;;;;;4372368;32;20202;-67
2021/11/03 06:47:38;;;;;;;35.97;18.40;;;8.00;99.90;;;;;;4362831;32;20637;-68
2021/11/03 06:50:08;;;;;;;35.83;18.77;;;8.10;99.90;;;;;;4363963;32;20466;-67
2021/11/03 06:52:35;;;;;;;34.83;18.27;;;8.00;99.90;;;;;;4350623;33;20198;-68
2021/11/03 06:55:07;;;;;;;33.53;17.93;;;8.00;99.90;;;;;;4365522;32;20216;-67
2021/11/03 06:57:33;;;;;;;34.63;17.20;;;8.10;99.90;;;;;;4362330;32;20207;-67
2021/11/03 07:00:00;;;;;;;37.07;18.07;;;8.10;99.90;;;;;;4362197;32;20227;-67
2021/11/03 07:02:27;;;;;;;32.77;17.97;;;8.00;99.90;;;;;;4362649;32;20579;-68
2021/11/03 07:04:54;;;;;;;32.57;18.30;;;8.00;99.90;;;;;;4362180;33;20180;-68
2021/11/03 07:07:21;;;;;;;36.70;18.13;;;7.90;99.90;;;;;;4364294;32;20203;-68
2021/11/03 07:09:48;;;;;;;33.77;18.87;;;7.90;99.90;;;;;;4363126;32;20176;-68
2021/11/03 07:12:15;;;;;;;35.20;18.43;;;7.80;99.90;;;;;;4363689;32;20188;-68
2021/11/03 07:14:42;;;;;;;34.63;18.37;;;7.80;99.90;;;;;;4362023;33;20227;-68
2021/11/03 07:17:11;;;;;;;35.07;18.33;;;7.80;99.90;;;;;;4350906;33;20194;-68
2021/11/03 07:19:40;;;;;;;35.30;18.93;;;7.80;99.90;;;;;;4361631;32;20176;-68
2021/11/03 07:22:07;;;;;;;33.87;17.73;;;7.80;99.90;;;;;;4362075;32;20191;-68
2021/11/03 07:24:35;;;;;;;35.77;18.77;;;7.80;99.90;;;;;;4363312;32;20568;-67
2021/11/03 07:27:03;;;;;;;36.47;19.03;;;7.80;99.90;;;;;;4363558;33;20203;-68
2021/11/03 07:29:29;;;;;;;36.37;17.93;;;7.80;99.90;;;;;;4363337;33;20176;-68
2021/11/03 07:31:56;;;;;;;38.90;18.20;;;7.80;99.90;;;;;;4362561;33;20194;-67
2021/11/03 07:34:23;;;;;;;39.33;19.33;;;7.80;99.90;;;;;;4363474;33;20242;-67
2021/11/03 07:36:50;;;;;;;38.93;19.63;;;7.90;99.90;;;;;;4363297;33;20270;-68
2021/11/03 07:39:17;;;;;;;38.17;18.97;;;7.90;99.90;;;;;;4361870;33;20164;-68
2021/11/03 07:41:44;;;;;;;39.10;19.77;;;8.00;99.90;;;;;;4362393;32;20241;-66
2021/11/03 07:44:12;;;;;;;43.73;20.50;;;8.10;99.90;;;;;;4366123;32;20148;-66
2021/11/03 07:46:39;;;;;;;42.73;19.77;;;8.10;99.90;;;;;;4367627;32;20172;-66
2021/11/03 07:49:06;;;;;;;41.33;19.90;;;8.10;99.90;;;;;;4363285;32;20164;-66
2021/11/03 07:51:33;;;;;;;45.70;20.40;;;8.10;99.90;;;;;;4361751;33;20191;-67
2021/11/03 07:54:00;;;;;;;47.33;21.67;;;8.10;99.90;;;;;;4362800;33;20265;-66
2021/11/03 07:56:31;;;;;;;44.53;21.43;;;8.10;99.90;;;;;;4360897;33;20231;-66
2021/11/03 07:58:58;;;;;;;43.57;20.33;;;8.10;99.90;;;;;;4361489;33;20251;-66
2021/11/03 08:01:25;;;;;;;42.80;20.50;;;8.20;99.90;;;;;;4362474;33;20202;-68
2021/11/03 08:03:52;;;;;;;44.13;21.30;;;8.20;99.90;;;;;;4363528;33;20184;-68
2021/11/03 08:06:19;;;;;;;42.60;21.37;;;8.20;99.90;;;;;;4364432;33;20203;-68
2021/11/03 08:08:51;;;;;;;39.80;20.13;;;8.20;99.90;;;;;;4361616;33;20248;-68
2021/11/03 08:11:18;;;;;;;44.77;21.83;;;8.20;99.90;;;;;;4363168;33;20226;-68
2021/11/03 08:13:45;;;;;;;43.87;21.03;;;8.20;99.90;;;;;;4363483;32;20553;-69
2021/11/03 08:16:12;;;;;;;41.83;20.20;;;8.10;99.90;;;;;;4364263;33;20144;-68
2021/11/03 08:18:43;;;;;;;42.57;19.93;;;8.10;99.90;;;;;;4362028;32;20188;-68
2021/11/03 08:21:12;;;;;;;39.93;20.27;;;8.10;99.90;;;;;;4349811;33;20645;-68
2021/11/03 08:23:39;;;;;;;41.03;19.70;;;8.20;99.90;;;;;;4364130;32;20199;-68
2021/11/03 08:26:06;;;;;;;43.10;21.53;;;8.30;99.90;;;;;;4367160;32;20156;-68
2021/11/03 08:28:34;;;;;;;39.07;20.77;;;8.40;99.90;;;;;;4369771;32;20259;-68
2021/11/03 08:31:03;;;;;;;44.13;20.93;;;8.40;99.90;;;;;;4367817;32;20184;-68
2021/11/03 08:33:36;;;;;;;39.63;20.63;;;8.50;99.90;;;;;;4366692;32;20195;-68
2021/11/03 08:36:05;;;;;;;42.40;20.63;;;8.50;99.90;;;;;;4365599;32;20194;-68
2021/11/03 08:38:51;;;;;;;44.87;21.53;;;8.50;99.90;;;;;;4364953;32;20526;-68
2021/11/03 08:41:19;;;;;;;43.67;21.30;;;8.70;99.90;;;;;;4364753;32;20192;-68
2021/11/03 08:43:47;;;;;;;38.10;20.93;;;8.80;99.90;;;;;;4364868;32;20185;-68
2021/11/03 08:46:16;;;;;;;40.23;20.53;;;8.90;99.90;;;;;;4364121;32;20176;-69
2021/11/03 08:48:51;;;;;;;37.97;20.40;;;8.90;99.90;;;;;;4363816;32;20231;-69
2021/11/03 08:51:18;;;;;;;41.27;20.10;;;8.90;99.90;;;;;;4363645;33;20487;-69
2021/11/03 08:53:50;;;;;;;39.33;20.17;;;9.00;99.90;;;;;;4365418;32;20230;-69
2021/11/03 08:56:17;;;;;;;38.53;20.47;;;9.10;99.90;;;;;;4365140;32;20190;-68
2021/11/03 08:58:44;;;;;;;39.63;19.90;;;9.20;99.90;;;;;;4363452;32;20179;-67
2021/11/03 09:01:11;;;;;;;37.30;19.97;;;9.20;99.90;;;;;;4363578;33;20249;-67
2021/11/03 09:03:40;;;;;;;34.57;18.80;;;9.30;99.90;;;;;;4366989;32;20163;-67
2021/11/03 09:06:08;;;;;;;33.60;17.83;;;9.20;99.90;;;;;;4364171;32;20198;-67
2021/11/03 09:08:40;;;;;;;31.53;17.53;;;9.30;99.90;;;;;;4364600;32;20223;-67
2021/11/03 09:11:08;;;;;;;30.73;16.87;;;9.40;99.90;;;;;;4364584;32;20235;-68
2021/11/03 09:13:36;;;;;;;33.27;17.00;;;9.40;99.90;;;;;;4363674;33;20459;-68
2021/11/03 09:16:03;;;;;;;33.03;18.07;;;9.50;99.90;;;;;;4363801;32;20194;-67
2021/11/03 09:18:31;;;;;;;31.53;17.40;;;9.40;99.90;;;;;;4363407;32;20444;-68
2021/11/03 09:20:59;;;;;;;29.43;17.33;;;9.40;99.90;;;;;;4372864;32;20239;-68
2021/11/03 09:23:27;;;;;;;30.27;16.87;;;9.40;99.90;;;;;;4366449;32;20153;-67
2021/11/03 09:25:55;;;;;;;32.40;17.83;;;9.50;99.90;;;;;;4363148;32;20215;-67
2021/11/03 09:28:24;;;;;;;32.83;17.80;;;9.50;99.90;;;;;;4364387;32;20437;-67
2021/11/03 09:30:54;;;;;;;27.97;16.87;;;9.60;99.90;;;;;;4364654;32;20262;-67
2021/11/03 09:33:21;;;;;;;31.07;17.00;;;9.70;99.90;;;;;;4364548;32;20192;-67
2021/11/03 09:35:50;;;;;;;29.27;16.13;;;9.80;99.90;;;;;;4365131;32;20211;-67
2021/11/03 09:38:21;;;;;;;25.50;15.40;;;10.00;99.90;;;;;;4363050;33;20177;-67
2021/11/03 09:40:52;;;;;;;24.27;14.57;;;10.00;99.90;;;;;;4320303;33;20203;-67
2021/11/03 09:43:39;;;;;;;26.33;15.77;;;10.10;99.90;;;;;;4320452;33;20295;-67
2021/11/03 09:46:24;;;;;;;25.30;15.33;;;10.40;99.90;;;;;;4320014;33;20196;-67
2021/11/03 09:49:03;;;;;;;26.10;14.37;;;10.70;99.90;;;;;;4320285;33;20199;-67
2021/11/03 09:51:31;;;;;;;23.20;13.97;;;10.80;99.90;;;;;;4320579;33;20203;-68
2021/11/03 09:54:00;;;;;;;26.20;14.57;;;11.00;99.90;;;;;;4319882;33;20547;-68
2021/11/03 09:56:45;;;;;;;24.60;14.47;;;11.50;99.90;;;;;;4320719;33;20207;-67
2021/11/03 09:59:43;;;;;;;20.73;12.70;;;11.80;99.90;;;;;;4345233;32;20298;-68
2021/11/03 10:02:24;;;;;;;22.80;13.27;;;11.80;99.90;;;;;;4358414;32;20188;-67
2021/11/03 10:05:10;;;;;;;20.50;12.73;;;11.80;99.90;;;;;;4362814;32;20294;-67
2021/11/03 10:07:58;;;;;;;23.97;12.40;;;11.70;99.90;;;;;;4364573;32;20231;-66
2021/11/03 10:10:39;;;;;;;21.47;12.93;;;11.50;99.90;;;;;;4362684;32;20254;-67
2021/11/03 10:13:20;;;;;;;22.33;13.43;;;11.50;99.90;;;;;;4364284;32;20571;-67
2021/11/03 10:16:02;;;;;;;25.43;13.80;;;11.40;99.90;;;;;;4362417;33;20580;-67
2021/11/03 10:18:35;;;;;;;35.57;14.90;;;11.40;99.90;;;;;;4364003;32;20145;-68
2021/11/03 10:21:14;;;;;;;22.80;13.30;;;11.30;99.90;;;;;;4362759;32;20199;-68
2021/11/03 10:23:54;;;;;;;21.27;13.17;;;11.40;99.90;;;;;;4364234;32;20229;-67
2021/11/03 10:26:23;;;;;;;34.90;13.93;;;11.40;99.90;;;;;;4362246;33;20554;-67
2021/11/03 10:29:05;;;;;;;22.10;13.20;;;11.30;99.90;;;;;;4365557;32;20167;-67
2021/11/03 10:31:55;;;;;;;23.10;13.10;;;11.20;99.90;;;;;;4363001;32;20537;-67
2021/11/03 10:34:30;;;;;;;22.93;13.67;;;11.20;99.90;;;;;;4363937;32;20222;-67
2021/11/03 10:37:11;;;;;;;24.50;14.10;;;11.10;99.90;;;;;;4363621;32;20214;-68
2021/11/03 10:39:49;;;;;;;25.40;13.00;;;11.30;99.90;;;;;;4362031;33;20191;-67
2021/11/03 10:42:34;;;;;;;20.70;12.70;;;11.40;99.90;;;;;;4362407;33;20176;-67
2021/11/03 10:45:26;;;;;;;23.37;13.17;;;11.70;99.90;;;;;;4362058;32;20194;-67
2021/11/03 10:47:55;;;;;;;23.20;12.60;;;11.70;99.90;;;;;;4363020;32;20189;-67
2021/11/03 10:51:17;;;;;;;22.73;13.27;;;11.80;99.90;;;;;;4364222;32;20351;-67
2021/11/03 10:53:54;;;;;;;21.97;12.53;;;11.80;99.90;;;;;;4319417;33;20219;-68
2021/11/03 10:56:47;;;;;;;21.80;12.93;;;11.90;99.90;;;;;;4327917;33;20218;-68
2021/11/03 10:59:19;;;;;;;22.20;12.63;;;12.10;99.90;;;;;;4277717;33;20170;-67
2021/11/03 11:01:52;;;;;;;22.10;12.30;;;12.40;99.90;;;;;;4276695;33;20430;-68
2021/11/03 11:04:30;;;;;;;19.00;11.60;;;12.40;99.90;;;;;;4277564;33;20181;-67
2021/11/03 11:07:31;;;;;;;19.67;11.20;;;12.30;99.90;;;;;;4288579;33;20184;-68
2021/11/03 11:10:14;;;;;;;18.33;10.87;;;12.00;99.90;;;;;;4287702;33;20176;-67
2021/11/03 11:12:47;;;;;;;18.33;11.47;;;11.90;99.90;;;;;;4277548;33;20264;-68
2021/11/03 11:15:14;;;;;;;19.77;12.10;;;12.00;99.90;;;;;;4277232;33;20567;-68
2021/11/03 11:17:47;;;;;;;22.23;12.23;;;12.20;99.90;;;;;;4288779;33;20209;-68
2021/11/03 11:20:24;;;;;;;17.80;11.47;;;12.30;99.90;;;;;;4276989;33;20554;-68
2021/11/03 11:23:06;;;;;;;19.87;11.67;;;12.40;99.90;;;;;;4287967;33;20237;-68
2021/11/03 11:26:00;;;;;;;17.63;10.80;;;12.40;99.90;;;;;;4277067;33;20182;-68
2021/11/03 11:28:30;;;;;;;15.80;9.77;;;12.30;99.90;;;;;;4313302;33;20177;-68
2021/11/03 11:31:06;;;;;;;17.03;10.53;;;12.10;99.90;;;;;;4316808;33;20203;-68
2021/11/03 11:33:58;;;;;;;19.37;10.30;;;12.20;99.90;;;;;;4304663;33;20274;-68
2021/11/03 11:36:33;;;;;;;18.53;10.57;;;12.20;99.90;;;;;;4340459;32;20621;-68
2021/11/03 11:39:39;;;;;;;17.93;10.40;;;12.20;99.90;;;;;;4374642;32;20254;-68
2021/11/03 11:42:17;;;;;;;18.30;10.97;;;12.00;99.90;;;;;;4335272;33;20172;-68
2021/11/03 11:45:22;;;;;;;18.23;10.47;;;12.00;99.90;;;;;;4335374;33;20534;-68
2021/11/03 11:47:53;;;;;;;14.93;9.40;;;12.20;99.90;;;;;;4316937;33;20165;-68
2021/11/03 11:50:23;;;;;;;14.77;9.77;;;12.60;99.90;;;;;;4317629;33;20239;-68
2021/11/03 11:52:52;;;;;;;17.47;9.83;;;12.70;99.90;;;;;;4316717;33;20173;-68
2021/11/03 11:55:23;;;;;;;15.00;9.70;;;13.40;99.90;;;;;;4317652;33;20156;-68
2021/11/03 11:57:56;;;;;;;16.27;10.07;;;14.40;99.90;;;;;;4318098;33;20263;-68
2021/11/03 12:00:25;;;;;;;15.43;9.03;;;15.20;99.90;;;;;;4319961;33;20248;-68
2021/11/03 12:02:52;;;;;;;13.87;9.00;;;15.70;99.90;;;;;;4320770;33;20204;-68
2021/11/03 12:05:43;;;;;;;13.90;9.13;;;15.20;99.90;;;;;;4319144;33;20177;-68
2021/11/03 12:08:10;;;;;;;14.70;9.00;;;15.00;99.90;;;;;;4320148;33;20219;-69
2021/11/03 12:10:55;;;;;;;15.87;9.07;;;14.90;99.90;;;;;;4318730;33;20195;-67
2021/11/03 12:13:40;;;;;;;14.00;9.13;;;15.20;99.90;;;;;;4319211;33;20544;-68
2021/11/03 12:16:23;;;;;;;14.73;8.77;;;14.80;99.90;;;;;;4308574;33;20236;-69
2021/11/03 12:18:53;;;;;;;14.47;9.40;;;14.60;99.90;;;;;;4322969;33;20207;-68
2021/11/03 12:21:25;;;;;;;13.70;8.80;;;15.90;99.90;;;;;;4335046;33;20178;-69
2021/11/03 12:24:07;;;;;;;14.07;9.30;;;16.80;99.90;;;;;;4358120;32;20242;-69
2021/11/03 12:26:44;;;;;;;17.23;9.47;;;17.40;99.90;;;;;;4379587;32;20601;-69
2021/11/03 12:29:17;;;;;;;15.40;9.07;;;17.80;99.90;;;;;;4379624;32;20190;-69
2021/11/03 12:31:52;;;;;;;15.37;9.33;;;17.90;99.90;;;;;;4378473;32;20236;-69
2021/11/03 12:34:29;;;;;;;13.40;8.90;;;18.30;99.90;;;;;;4378890;32;20254;-69
2021/11/03 12:37:04;;;;;;;15.57;9.20;;;18.90;99.90;;;;;;4378910;32;20230;-69
2021/11/03 12:39:30;;;;;;;13.70;8.53;;;19.30;99.90;;;;;;4381776;32;20439;-68
2021/11/03 12:42:19;;;;;;;13.97;8.50;;;18.30;99.90;;;;;;4380167;32;20151;-68
2021/11/03 12:44:48;;;;;;;12.83;8.40;;;18.10;99.90;;;;;;4375448;32;20450;-68
2021/11/03 12:47:19;;;;;;;13.30;8.17;;;18.90;99.90;;;;;;4368120;32;20548;-68
2021/11/03 12:50:03;;;;;;;11.23;7.73;;;19.00;99.90;;;;;;4363810;32;20172;-69
2021/11/03 12:52:31;;;;;;;14.90;7.87;;;19.10;99.90;;;;;;4363564;32;20432;-68
2021/11/03 12:54:59;;;;;;;14.17;7.90;;;18.80;99.90;;;;;;4366300;32;20529;-68